Tucumcari Municipal Airport Tucumcari US
ICAO: KTCC
IATA: TCC
Category: Medium
Scheduled Services: No

Elevation: 4065 ft
TransAlt. 18000 ft.

Airport Communications:
ASOS:119.275
ALBUQUERQUE CNTR:126.85
ALBUQUERQUE RDO:122.35
CTAF/UNICOM:122.95

KTCC Zoom In..

If you have problems with the map follow the link
https://www.worldairports.se/pages/airport.php?
ICAO=KTCC

Runways:

(A) RW 03 length 7104 ft width 100 ft
---- / hdg 33

(B) RW 08 length 4600 ft width 60 ft
---- / hdg 78

(C) RW 21 length 7104 ft width 100 ft
---- / hdg 213

(D) RW 26 length 4600 ft width 60 ft
---- / hdg 258

Location; KTCC
Day. 08 / Time. 04.53 Zulu
* Altimeter: 29.96
* Temperature: 12° c. 53.6°f.
* Wind from: KTC° Speed C kn.
Dewpoint: -02° c.
Visibility: 10 Statute Miles.
Clouds: Clear (automated report).

KTCC 080453Z AUTO 27017KT 10SM CLR 12/M02 A2996 RMK AO2 SLP117 T01221017


Wind From KTC°
Speed C kn.

 
 
jpsmedia worldairports.se 2019   terms of use